sensor_id;sensor_type;location;lat;lon;timestamp;P1;durP1;ratioP1;P2;durP2;ratioP2
51296;SDS011;37380;45.186;9.792;2024-01-27T00:02:26;129.27;;;86.18;;
51296;SDS011;37380;45.186;9.792;2024-01-27T00:04:53;105.40;;;83.60;;
51296;SDS011;37380;45.186;9.792;2024-01-27T00:07:20;127.72;;;84.65;;
51296;SDS011;37380;45.186;9.792;2024-01-27T00:09:47;137.45;;;88.55;;
51296;SDS011;37380;45.186;9.792;2024-01-27T00:12:14;112.53;;;88.18;;
51296;SDS011;37380;45.186;9.792;2024-01-27T00:14:41;154.55;;;89.18;;
51296;SDS011;37380;45.186;9.792;2024-01-27T00:17:11;173.73;;;97.25;;
51296;SDS011;37380;45.186;9.792;2024-01-27T00:19:38;123.90;;;89.15;;
51296;SDS011;37380;45.186;9.792;2024-01-27T00:22:07;168.40;;;94.55;;
51296;SDS011;37380;45.186;9.792;2024-01-27T00:24:34;119.95;;;92.20;;
51296;SDS011;37380;45.186;9.792;2024-01-27T00:27:01;148.65;;;98.05;;
51296;SDS011;37380;45.186;9.792;2024-01-27T00:29:29;164.52;;;99.88;;
51296;SDS011;37380;45.186;9.792;2024-01-27T00:31:56;114.85;;;96.72;;
51296;SDS011;37380;45.186;9.792;2024-01-27T00:34:22;177.45;;;99.65;;
51296;SDS011;37380;45.186;9.792;2024-01-27T00:36:50;134.27;;;98.10;;
51296;SDS011;37380;45.186;9.792;2024-01-27T00:39:17;161.95;;;100.03;;
51296;SDS011;37380;45.186;9.792;2024-01-27T00:41:45;152.23;;;99.88;;
51296;SDS011;37380;45.186;9.792;2024-01-27T00:44:12;180.32;;;106.55;;
51296;SDS011;37380;45.186;9.792;2024-01-27T00:46:39;150.95;;;108.00;;
51296;SDS011;37380;45.186;9.792;2024-01-27T00:49:06;184.35;;;106.30;;
51296;SDS011;37380;45.186;9.792;2024-01-27T00:51:33;137.65;;;101.10;;
51296;SDS011;37380;45.186;9.792;2024-01-27T00:54:00;151.27;;;103.07;;
51296;SDS011;37380;45.186;9.792;2024-01-27T00:56:28;147.55;;;100.70;;
51296;SDS011;37380;45.186;9.792;2024-01-27T00:58:55;240.20;;;102.45;;
51296;SDS011;37380;45.186;9.792;2024-01-27T01:01:21;177.43;;;106.28;;
51296;SDS011;37380;45.186;9.792;2024-01-27T01:03:49;133.93;;;101.50;;
51296;SDS011;37380;45.186;9.792;2024-01-27T01:06:16;200.30;;;111.80;;
51296;SDS011;37380;45.186;9.792;2024-01-27T01:08:43;164.43;;;105.63;;
51296;SDS011;37380;45.186;9.792;2024-01-27T01:11:10;197.05;;;103.53;;
51296;SDS011;37380;45.186;9.792;2024-01-27T01:13:37;141.07;;;96.70;;
51296;SDS011;37380;45.186;9.792;2024-01-27T01:16:04;128.32;;;90.72;;
51296;SDS011;37380;45.186;9.792;2024-01-27T01:18:32;148.13;;;92.32;;
51296;SDS011;37380;45.186;9.792;2024-01-27T01:20:59;114.35;;;92.05;;
51296;SDS011;37380;45.186;9.792;2024-01-27T01:23:26;142.52;;;94.40;;
51296;SDS011;37380;45.186;9.792;2024-01-27T01:25:53;117.15;;;87.78;;
51296;SDS011;37380;45.186;9.792;2024-01-27T01:28:20;138.43;;;91.53;;
51296;SDS011;37380;45.186;9.792;2024-01-27T01:30:47;183.77;;;93.35;;
51296;SDS011;37380;45.186;9.792;2024-01-27T01:33:14;118.45;;;90.63;;
51296;SDS011;37380;45.186;9.792;2024-01-27T01:35:41;130.48;;;93.03;;
51296;SDS011;37380;45.186;9.792;2024-01-27T01:38:09;177.32;;;90.35;;
51296;SDS011;37380;45.186;9.792;2024-01-27T01:40:40;122.50;;;87.72;;
51296;SDS011;37380;45.186;9.792;2024-01-27T01:43:11;107.50;;;80.50;;
51296;SDS011;37380;45.186;9.792;2024-01-27T01:45:38;107.60;;;79.40;;
51296;SDS011;37380;45.186;9.792;2024-01-27T01:48:11;127.95;;;84.53;;
51296;SDS011;37380;45.186;9.792;2024-01-27T01:50:38;157.18;;;80.30;;
51296;SDS011;37380;45.186;9.792;2024-01-27T01:53:06;104.47;;;79.15;;
51296;SDS011;37380;45.186;9.792;2024-01-27T01:55:34;129.50;;;86.90;;
51296;SDS011;37380;45.186;9.792;2024-01-27T01:58:01;103.53;;;82.20;;
51296;SDS011;37380;45.186;9.792;2024-01-27T02:00:28;167.52;;;83.82;;
51296;SDS011;37380;45.186;9.792;2024-01-27T02:02:58;137.48;;;86.28;;
51296;SDS011;37380;45.186;9.792;2024-01-27T02:05:29;121.38;;;89.90;;
51296;SDS011;37380;45.186;9.792;2024-01-27T02:07:56;141.63;;;87.40;;
51296;SDS011;37380;45.186;9.792;2024-01-27T02:10:25;123.55;;;90.55;;
51296;SDS011;37380;45.186;9.792;2024-01-27T02:12:54;169.15;;;95.05;;
51296;SDS011;37380;45.186;9.792;2024-01-27T02:15:22;140.18;;;95.65;;
51296;SDS011;37380;45.186;9.792;2024-01-27T02:17:49;138.73;;;94.68;;
51296;SDS011;37380;45.186;9.792;2024-01-27T02:20:17;148.82;;;102.20;;
51296;SDS011;37380;45.186;9.792;2024-01-27T02:22:45;161.88;;;103.55;;
51296;SDS011;37380;45.186;9.792;2024-01-27T02:25:12;178.70;;;105.57;;
51296;SDS011;37380;45.186;9.792;2024-01-27T02:27:39;131.10;;;104.63;;
51296;SDS011;37380;45.186;9.792;2024-01-27T02:30:09;139.88;;;107.10;;
51296;SDS011;37380;45.186;9.792;2024-01-27T02:32:36;155.18;;;111.15;;
51296;SDS011;37380;45.186;9.792;2024-01-27T02:35:03;137.73;;;110.07;;
51296;SDS011;37380;45.186;9.792;2024-01-27T02:37:30;191.35;;;110.28;;
51296;SDS011;37380;45.186;9.792;2024-01-27T02:39:57;144.15;;;105.78;;
51296;SDS011;37380;45.186;9.792;2024-01-27T02:42:27;198.90;;;113.03;;
51296;SDS011;37380;45.186;9.792;2024-01-27T02:44:54;230.25;;;115.47;;
51296;SDS011;37380;45.186;9.792;2024-01-27T02:47:26;226.80;;;112.85;;
51296;SDS011;37380;45.186;9.792;2024-01-27T02:49:56;166.50;;;111.53;;
51296;SDS011;37380;45.186;9.792;2024-01-27T02:52:25;203.02;;;112.45;;
51296;SDS011;37380;45.186;9.792;2024-01-27T02:54:57;197.25;;;115.28;;
51296;SDS011;37380;45.186;9.792;2024-01-27T02:57:24;215.00;;;113.88;;
51296;SDS011;37380;45.186;9.792;2024-01-27T02:59:52;237.93;;;116.32;;
51296;SDS011;37380;45.186;9.792;2024-01-27T03:02:19;230.20;;;114.15;;
51296;SDS011;37380;45.186;9.792;2024-01-27T03:04:46;174.43;;;112.50;;
51296;SDS011;37380;45.186;9.792;2024-01-27T03:07:15;220.93;;;117.88;;
51296;SDS011;37380;45.186;9.792;2024-01-27T03:09:45;178.98;;;116.85;;
51296;SDS011;37380;45.186;9.792;2024-01-27T03:12:14;178.95;;;120.28;;
51296;SDS011;37380;45.186;9.792;2024-01-27T03:14:42;167.82;;;121.25;;
51296;SDS011;37380;45.186;9.792;2024-01-27T03:17:10;212.38;;;121.07;;
51296;SDS011;37380;45.186;9.792;2024-01-27T03:19:37;264.77;;;130.32;;
51296;SDS011;37380;45.186;9.792;2024-01-27T03:22:07;207.13;;;124.43;;
51296;SDS011;37380;45.186;9.792;2024-01-27T03:24:36;218.85;;;124.15;;
51296;SDS011;37380;45.186;9.792;2024-01-27T03:27:03;231.63;;;128.50;;
51296;SDS011;37380;45.186;9.792;2024-01-27T03:29:30;241.35;;;123.07;;
51296;SDS011;37380;45.186;9.792;2024-01-27T03:31:57;286.42;;;124.97;;
51296;SDS011;37380;45.186;9.792;2024-01-27T03:34:25;309.15;;;129.68;;
51296;SDS011;37380;45.186;9.792;2024-01-27T03:36:56;206.23;;;138.20;;
51296;SDS011;37380;45.186;9.792;2024-01-27T03:39:26;241.48;;;134.32;;
51296;SDS011;37380;45.186;9.792;2024-01-27T03:41:53;370.33;;;151.35;;
51296;SDS011;37380;45.186;9.792;2024-01-27T03:44:22;330.23;;;140.25;;
51296;SDS011;37380;45.186;9.792;2024-01-27T03:46:49;333.08;;;136.02;;
51296;SDS011;37380;45.186;9.792;2024-01-27T03:49:18;315.05;;;139.00;;
51296;SDS011;37380;45.186;9.792;2024-01-27T03:51:46;235.98;;;137.73;;
51296;SDS011;37380;45.186;9.792;2024-01-27T03:54:15;280.60;;;142.10;;
51296;SDS011;37380;45.186;9.792;2024-01-27T03:56:43;270.60;;;140.13;;
51296;SDS011;37380;45.186;9.792;2024-01-27T03:59:12;262.35;;;145.05;;
51296;SDS011;37380;45.186;9.792;2024-01-27T04:01:39;227.32;;;141.02;;
51296;SDS011;37380;45.186;9.792;2024-01-27T04:04:06;285.02;;;146.82;;
51296;SDS011;37380;45.186;9.792;2024-01-27T04:06:37;314.20;;;148.63;;
51296;SDS011;37380;45.186;9.792;2024-01-27T04:09:09;193.43;;;132.18;;
51296;SDS011;37380;45.186;9.792;2024-01-27T04:11:40;245.30;;;137.85;;
51296;SDS011;37380;45.186;9.792;2024-01-27T04:14:09;278.00;;;143.48;;
51296;SDS011;37380;45.186;9.792;2024-01-27T04:16:36;239.20;;;133.68;;
51296;SDS011;37380;45.186;9.792;2024-01-27T04:19:03;259.60;;;130.95;;
51296;SDS011;37380;45.186;9.792;2024-01-27T04:21:31;286.95;;;132.27;;
51296;SDS011;37380;45.186;9.792;2024-01-27T04:24:00;222.68;;;129.25;;
51296;SDS011;37380;45.186;9.792;2024-01-27T04:26:29;267.13;;;132.52;;
51296;SDS011;37380;45.186;9.792;2024-01-27T04:28:56;304.52;;;141.40;;
51296;SDS011;37380;45.186;9.792;2024-01-27T04:31:28;267.85;;;135.73;;
51296;SDS011;37380;45.186;9.792;2024-01-27T04:34:02;285.67;;;134.10;;
51296;SDS011;37380;45.186;9.792;2024-01-27T04:36:31;325.75;;;138.02;;
51296;SDS011;37380;45.186;9.792;2024-01-27T04:41:34;238.40;;;130.98;;
51296;SDS011;37380;45.186;9.792;2024-01-27T04:44:02;242.23;;;134.50;;
51296;SDS011;37380;45.186;9.792;2024-01-27T04:46:30;227.65;;;131.85;;
51296;SDS011;37380;45.186;9.792;2024-01-27T04:48:57;236.77;;;139.48;;
51296;SDS011;37380;45.186;9.792;2024-01-27T04:51:32;211.85;;;134.30;;
51296;SDS011;37380;45.186;9.792;2024-01-27T04:53:59;217.00;;;130.43;;
51296;SDS011;37380;45.186;9.792;2024-01-27T04:56:29;283.42;;;140.55;;
51296;SDS011;37380;45.186;9.792;2024-01-27T04:58:56;258.17;;;140.30;;
51296;SDS011;37380;45.186;9.792;2024-01-27T05:01:23;252.18;;;134.35;;
51296;SDS011;37380;45.186;9.792;2024-01-27T05:03:54;224.35;;;132.35;;
51296;SDS011;37380;45.186;9.792;2024-01-27T05:06:25;242.45;;;131.57;;
51296;SDS011;37380;45.186;9.792;2024-01-27T05:08:54;228.35;;;132.93;;
51296;SDS011;37380;45.186;9.792;2024-01-27T05:11:29;214.85;;;133.77;;
51296;SDS011;37380;45.186;9.792;2024-01-27T05:13:58;274.92;;;134.00;;
51296;SDS011;37380;45.186;9.792;2024-01-27T05:16:26;234.10;;;135.55;;
51296;SDS011;37380;45.186;9.792;2024-01-27T05:18:55;240.80;;;138.85;;
51296;SDS011;37380;45.186;9.792;2024-01-27T05:21:24;240.48;;;136.07;;
51296;SDS011;37380;45.186;9.792;2024-01-27T05:23:52;242.15;;;137.95;;
51296;SDS011;37380;45.186;9.792;2024-01-27T05:26:19;299.65;;;139.02;;
51296;SDS011;37380;45.186;9.792;2024-01-27T05:28:48;272.95;;;139.40;;
51296;SDS011;37380;45.186;9.792;2024-01-27T05:31:19;325.48;;;142.45;;
51296;SDS011;37380;45.186;9.792;2024-01-27T05:33:46;219.50;;;138.23;;
51296;SDS011;37380;45.186;9.792;2024-01-27T05:36:17;203.27;;;140.07;;
51296;SDS011;37380;45.186;9.792;2024-01-27T05:38:44;260.55;;;138.73;;
51296;SDS011;37380;45.186;9.792;2024-01-27T05:41:11;287.85;;;136.70;;
51296;SDS011;37380;45.186;9.792;2024-01-27T05:43:38;297.08;;;145.38;;
51296;SDS011;37380;45.186;9.792;2024-01-27T05:46:05;309.60;;;147.63;;
51296;SDS011;37380;45.186;9.792;2024-01-27T05:48:32;307.77;;;152.40;;
51296;SDS011;37380;45.186;9.792;2024-01-27T05:51:01;279.33;;;150.40;;
51296;SDS011;37380;45.186;9.792;2024-01-27T05:53:28;302.60;;;159.35;;
51296;SDS011;37380;45.186;9.792;2024-01-27T05:55:55;324.33;;;160.10;;
51296;SDS011;37380;45.186;9.792;2024-01-27T05:58:23;308.98;;;158.57;;
51296;SDS011;37380;45.186;9.792;2024-01-27T06:00:50;304.73;;;154.45;;
51296;SDS011;37380;45.186;9.792;2024-01-27T06:03:17;363.98;;;174.38;;
51296;SDS011;37380;45.186;9.792;2024-01-27T06:05:44;331.23;;;164.85;;
51296;SDS011;37380;45.186;9.792;2024-01-27T06:08:12;324.23;;;167.98;;
51296;SDS011;37380;45.186;9.792;2024-01-27T06:10:40;332.52;;;174.68;;
51296;SDS011;37380;45.186;9.792;2024-01-27T06:13:07;349.25;;;168.48;;
51296;SDS011;37380;45.186;9.792;2024-01-27T06:15:34;322.40;;;173.63;;
51296;SDS011;37380;45.186;9.792;2024-01-27T06:18:01;317.75;;;180.10;;
51296;SDS011;37380;45.186;9.792;2024-01-27T06:20:29;331.23;;;182.90;;
51296;SDS011;37380;45.186;9.792;2024-01-27T06:22:56;377.48;;;175.48;;
51296;SDS011;37380;45.186;9.792;2024-01-27T06:25:27;332.80;;;181.30;;
51296;SDS011;37380;45.186;9.792;2024-01-27T06:27:56;309.98;;;172.60;;
51296;SDS011;37380;45.186;9.792;2024-01-27T06:30:30;345.98;;;178.07;;
51296;SDS011;37380;45.186;9.792;2024-01-27T06:33:01;355.08;;;168.52;;
51296;SDS011;37380;45.186;9.792;2024-01-27T06:35:30;326.85;;;174.05;;
51296;SDS011;37380;45.186;9.792;2024-01-27T06:37:57;300.15;;;171.70;;
51296;SDS011;37380;45.186;9.792;2024-01-27T06:40:24;268.20;;;173.80;;
51296;SDS011;37380;45.186;9.792;2024-01-27T06:42:54;319.08;;;176.55;;
51296;SDS011;37380;45.186;9.792;2024-01-27T06:45:22;320.67;;;175.13;;
51296;SDS011;37380;45.186;9.792;2024-01-27T06:47:55;364.05;;;183.20;;
51296;SDS011;37380;45.186;9.792;2024-01-27T06:50:23;335.98;;;178.20;;
51296;SDS011;37380;45.186;9.792;2024-01-27T06:52:53;327.92;;;178.23;;
51296;SDS011;37380;45.186;9.792;2024-01-27T06:55:23;364.13;;;177.13;;
51296;SDS011;37380;45.186;9.792;2024-01-27T06:58:02;343.42;;;179.15;;
51296;SDS011;37380;45.186;9.792;2024-01-27T07:00:34;305.25;;;175.57;;
51296;SDS011;37380;45.186;9.792;2024-01-27T07:03:03;357.67;;;180.85;;
51296;SDS011;37380;45.186;9.792;2024-01-27T07:05:31;362.85;;;182.82;;
51296;SDS011;37380;45.186;9.792;2024-01-27T07:08:05;342.23;;;188.43;;
51296;SDS011;37380;45.186;9.792;2024-01-27T07:10:35;340.42;;;191.10;;
51296;SDS011;37380;45.186;9.792;2024-01-27T07:13:05;318.67;;;183.10;;
51296;SDS011;37380;45.186;9.792;2024-01-27T07:15:33;300.67;;;187.77;;
51296;SDS011;37380;45.186;9.792;2024-01-27T07:18:01;390.75;;;189.75;;
51296;SDS011;37380;45.186;9.792;2024-01-27T07:20:32;382.75;;;184.13;;
51296;SDS011;37380;45.186;9.792;2024-01-27T07:23:00;377.77;;;187.75;;
51296;SDS011;37380;45.186;9.792;2024-01-27T07:25:30;384.08;;;181.38;;
51296;SDS011;37380;45.186;9.792;2024-01-27T07:27:57;343.98;;;183.57;;
51296;SDS011;37380;45.186;9.792;2024-01-27T07:30:28;236.40;;;169.68;;
51296;SDS011;37380;45.186;9.792;2024-01-27T07:32:58;235.40;;;169.85;;
51296;SDS011;37380;45.186;9.792;2024-01-27T07:35:26;246.32;;;165.95;;
51296;SDS011;37380;45.186;9.792;2024-01-27T07:37:53;212.27;;;160.77;;
51296;SDS011;37380;45.186;9.792;2024-01-27T07:40:20;235.82;;;159.32;;
51296;SDS011;37380;45.186;9.792;2024-01-27T07:42:49;201.35;;;151.38;;
51296;SDS011;37380;45.186;9.792;2024-01-27T07:45:16;250.23;;;155.80;;
51296;SDS011;37380;45.186;9.792;2024-01-27T07:47:43;194.40;;;146.45;;
51296;SDS011;37380;45.186;9.792;2024-01-27T07:50:10;192.88;;;146.32;;
51296;SDS011;37380;45.186;9.792;2024-01-27T07:52:37;235.00;;;150.70;;
51296;SDS011;37380;45.186;9.792;2024-01-27T07:55:04;270.50;;;152.52;;
51296;SDS011;37380;45.186;9.792;2024-01-27T07:57:31;271.00;;;153.40;;
51296;SDS011;37380;45.186;9.792;2024-01-27T08:00:01;915.15;;;311.85;;
51296;SDS011;37380;45.186;9.792;2024-01-27T08:02:30;193.07;;;144.93;;
51296;SDS011;37380;45.186;9.792;2024-01-27T08:04:58;223.75;;;143.43;;
51296;SDS011;37380;45.186;9.792;2024-01-27T08:07:25;198.07;;;138.13;;
51296;SDS011;37380;45.186;9.792;2024-01-27T08:09:52;181.15;;;138.60;;
51296;SDS011;37380;45.186;9.792;2024-01-27T08:12:20;494.95;;;194.10;;
51296;SDS011;37380;45.186;9.792;2024-01-27T08:14:47;227.60;;;136.45;;
51296;SDS011;37380;45.186;9.792;2024-01-27T08:17:14;228.48;;;130.20;;
51296;SDS011;37380;45.186;9.792;2024-01-27T08:19:41;183.77;;;134.30;;
51296;SDS011;37380;45.186;9.792;2024-01-27T08:22:08;229.48;;;134.20;;
51296;SDS011;37380;45.186;9.792;2024-01-27T08:24:38;162.50;;;130.23;;
51296;SDS011;37380;45.186;9.792;2024-01-27T08:27:05;190.18;;;139.27;;
51296;SDS011;37380;45.186;9.792;2024-01-27T08:29:32;170.77;;;130.75;;
51296;SDS011;37380;45.186;9.792;2024-01-27T08:31:59;178.38;;;134.55;;
51296;SDS011;37380;45.186;9.792;2024-01-27T08:34:27;210.88;;;140.18;;
51296;SDS011;37380;45.186;9.792;2024-01-27T08:37:00;182.88;;;135.88;;
51296;SDS011;37380;45.186;9.792;2024-01-27T08:39:29;163.25;;;131.05;;
51296;SDS011;37380;45.186;9.792;2024-01-27T08:41:57;173.40;;;128.82;;
51296;SDS011;37380;45.186;9.792;2024-01-27T08:44:24;168.15;;;130.30;;
51296;SDS011;37380;45.186;9.792;2024-01-27T08:46:51;159.73;;;119.68;;
51296;SDS011;37380;45.186;9.792;2024-01-27T08:49:19;159.27;;;123.18;;
51296;SDS011;37380;45.186;9.792;2024-01-27T08:51:46;156.43;;;121.20;;
51296;SDS011;37380;45.186;9.792;2024-01-27T08:54:13;158.65;;;119.65;;
51296;SDS011;37380;45.186;9.792;2024-01-27T08:56:40;148.27;;;114.05;;
51296;SDS011;37380;45.186;9.792;2024-01-27T08:59:08;152.07;;;111.22;;
51296;SDS011;37380;45.186;9.792;2024-01-27T09:01:35;136.05;;;107.25;;
51296;SDS011;37380;45.186;9.792;2024-01-27T09:04:02;132.45;;;98.57;;
51296;SDS011;37380;45.186;9.792;2024-01-27T09:06:29;126.93;;;97.97;;
51296;SDS011;37380;45.186;9.792;2024-01-27T09:08:57;115.57;;;89.05;;
51296;SDS011;37380;45.186;9.792;2024-01-27T09:11:25;116.97;;;92.30;;
51296;SDS011;37380;45.186;9.792;2024-01-27T09:13:54;118.85;;;92.85;;
51296;SDS011;37380;45.186;9.792;2024-01-27T09:16:21;113.13;;;92.45;;
51296;SDS011;37380;45.186;9.792;2024-01-27T09:18:48;114.55;;;88.75;;
51296;SDS011;37380;45.186;9.792;2024-01-27T09:21:17;118.90;;;91.53;;
51296;SDS011;37380;45.186;9.792;2024-01-27T09:23:49;114.43;;;88.63;;
51296;SDS011;37380;45.186;9.792;2024-01-27T09:26:17;111.20;;;90.82;;
51296;SDS011;37380;45.186;9.792;2024-01-27T09:28:45;115.85;;;96.13;;
51296;SDS011;37380;45.186;9.792;2024-01-27T09:31:23;112.45;;;90.22;;
51296;SDS011;37380;45.186;9.792;2024-01-27T09:33:52;110.15;;;86.72;;
51296;SDS011;37380;45.186;9.792;2024-01-27T09:36:21;105.00;;;85.95;;
51296;SDS011;37380;45.186;9.792;2024-01-27T09:38:49;110.10;;;84.20;;
51296;SDS011;37380;45.186;9.792;2024-01-27T09:41:16;108.18;;;86.18;;
51296;SDS011;37380;45.186;9.792;2024-01-27T09:43:44;110.00;;;86.22;;
51296;SDS011;37380;45.186;9.792;2024-01-27T09:46:14;109.60;;;87.20;;
51296;SDS011;37380;45.186;9.792;2024-01-27T09:48:42;115.35;;;88.60;;
51296;SDS011;37380;45.186;9.792;2024-01-27T09:51:10;120.47;;;93.20;;
51296;SDS011;37380;45.186;9.792;2024-01-27T09:53:37;125.88;;;93.93;;
51296;SDS011;37380;45.186;9.792;2024-01-27T09:56:05;116.88;;;94.68;;
51296;SDS011;37380;45.186;9.792;2024-01-27T09:58:33;125.65;;;96.47;;
51296;SDS011;37380;45.186;9.792;2024-01-27T10:01:01;133.75;;;99.57;;
51296;SDS011;37380;45.186;9.792;2024-01-27T10:03:30;124.50;;;92.28;;
51296;SDS011;37380;45.186;9.792;2024-01-27T10:05:57;109.75;;;88.10;;
51296;SDS011;37380;45.186;9.792;2024-01-27T10:08:25;116.10;;;88.18;;
51296;SDS011;37380;45.186;9.792;2024-01-27T10:10:55;129.45;;;93.43;;
51296;SDS011;37380;45.186;9.792;2024-01-27T10:13:23;125.60;;;91.97;;
51296;SDS011;37380;45.186;9.792;2024-01-27T10:16:03;125.82;;;91.25;;
51296;SDS011;37380;45.186;9.792;2024-01-27T10:18:32;129.60;;;92.60;;
51296;SDS011;37380;45.186;9.792;2024-01-27T10:21:00;146.88;;;97.15;;
51296;SDS011;37380;45.186;9.792;2024-01-27T10:23:39;127.78;;;96.32;;
51296;SDS011;37380;45.186;9.792;2024-01-27T10:26:09;138.45;;;94.82;;
51296;SDS011;37380;45.186;9.792;2024-01-27T10:28:36;134.15;;;96.13;;
51296;SDS011;37380;45.186;9.792;2024-01-27T10:31:07;123.07;;;90.45;;
51296;SDS011;37380;45.186;9.792;2024-01-27T10:33:38;115.18;;;86.70;;
51296;SDS011;37380;45.186;9.792;2024-01-27T10:36:06;110.60;;;87.57;;
51296;SDS011;37380;45.186;9.792;2024-01-27T10:38:37;106.07;;;79.80;;
51296;SDS011;37380;45.186;9.792;2024-01-27T10:41:09;102.60;;;77.85;;
51296;SDS011;37380;45.186;9.792;2024-01-27T10:43:37;99.00;;;78.68;;
51296;SDS011;37380;45.186;9.792;2024-01-27T10:46:08;123.57;;;87.50;;
51296;SDS011;37380;45.186;9.792;2024-01-27T10:48:35;116.60;;;86.60;;
51296;SDS011;37380;45.186;9.792;2024-01-27T10:51:09;96.38;;;68.07;;
51296;SDS011;37380;45.186;9.792;2024-01-27T10:53:37;111.63;;;79.80;;
51296;SDS011;37380;45.186;9.792;2024-01-27T10:56:06;112.13;;;80.18;;
51296;SDS011;37380;45.186;9.792;2024-01-27T10:58:37;115.53;;;82.20;;
51296;SDS011;37380;45.186;9.792;2024-01-27T11:01:10;107.30;;;78.15;;
51296;SDS011;37380;45.186;9.792;2024-01-27T11:03:39;132.10;;;87.13;;
51296;SDS011;37380;45.186;9.792;2024-01-27T11:06:07;119.85;;;86.90;;
51296;SDS011;37380;45.186;9.792;2024-01-27T11:08:37;116.38;;;83.88;;
51296;SDS011;37380;45.186;9.792;2024-01-27T11:11:10;127.50;;;90.57;;
51296;SDS011;37380;45.186;9.792;2024-01-27T11:13:38;121.95;;;89.10;;
51296;SDS011;37380;45.186;9.792;2024-01-27T11:16:08;133.77;;;90.72;;
51296;SDS011;37380;45.186;9.792;2024-01-27T11:18:43;123.57;;;87.35;;
51296;SDS011;37380;45.186;9.792;2024-01-27T11:21:14;117.45;;;91.93;;
51296;SDS011;37380;45.186;9.792;2024-01-27T11:26:21;98.22;;;78.18;;
51296;SDS011;37380;45.186;9.792;2024-01-27T11:28:49;106.72;;;82.60;;
51296;SDS011;37380;45.186;9.792;2024-01-27T11:31:17;90.03;;;68.82;;
51296;SDS011;37380;45.186;9.792;2024-01-27T11:33:50;85.60;;;64.05;;
51296;SDS011;37380;45.186;9.792;2024-01-27T11:36:21;78.40;;;58.42;;
51296;SDS011;37380;45.186;9.792;2024-01-27T11:38:52;81.95;;;62.80;;
51296;SDS011;37380;45.186;9.792;2024-01-27T11:41:24;74.80;;;58.78;;
51296;SDS011;37380;45.186;9.792;2024-01-27T11:43:56;79.82;;;61.30;;
51296;SDS011;37380;45.186;9.792;2024-01-27T11:46:24;90.55;;;62.78;;
51296;SDS011;37380;45.186;9.792;2024-01-27T11:48:52;71.05;;;57.65;;
51296;SDS011;37380;45.186;9.792;2024-01-27T11:51:19;79.95;;;59.40;;
51296;SDS011;37380;45.186;9.792;2024-01-27T11:53:46;81.85;;;61.78;;
51296;SDS011;37380;45.186;9.792;2024-01-27T11:56:14;100.20;;;69.07;;
51296;SDS011;37380;45.186;9.792;2024-01-27T11:58:48;99.32;;;71.53;;
51296;SDS011;37380;45.186;9.792;2024-01-27T12:01:16;82.47;;;57.47;;
51296;SDS011;37380;45.186;9.792;2024-01-27T12:03:46;100.40;;;66.75;;
51296;SDS011;37380;45.186;9.792;2024-01-27T12:06:15;90.43;;;64.45;;
51296;SDS011;37380;45.186;9.792;2024-01-27T12:08:44;96.55;;;68.55;;
51296;SDS011;37380;45.186;9.792;2024-01-27T12:11:16;96.20;;;70.22;;
51296;SDS011;37380;45.186;9.792;2024-01-27T12:13:50;93.60;;;71.60;;
51296;SDS011;37380;45.186;9.792;2024-01-27T12:16:17;95.60;;;72.70;;
51296;SDS011;37380;45.186;9.792;2024-01-27T12:18:45;101.80;;;70.80;;
51296;SDS011;37380;45.186;9.792;2024-01-27T12:21:12;86.53;;;62.03;;
51296;SDS011;37380;45.186;9.792;2024-01-27T12:23:50;86.88;;;67.18;;
51296;SDS011;37380;45.186;9.792;2024-01-27T12:26:22;83.80;;;62.58;;
51296;SDS011;37380;45.186;9.792;2024-01-27T12:28:50;87.80;;;61.33;;
51296;SDS011;37380;45.186;9.792;2024-01-27T12:31:17;83.32;;;66.68;;
51296;SDS011;37380;45.186;9.792;2024-01-27T12:33:51;81.95;;;60.40;;
51296;SDS011;37380;45.186;9.792;2024-01-27T12:36:20;78.95;;;58.90;;
51296;SDS011;37380;45.186;9.792;2024-01-27T12:39:09;80.10;;;60.35;;
51296;SDS011;37380;45.186;9.792;2024-01-27T12:41:36;90.88;;;65.35;;
51296;SDS011;37380;45.186;9.792;2024-01-27T12:44:06;85.22;;;64.75;;
51296;SDS011;37380;45.186;9.792;2024-01-27T12:46:33;88.28;;;66.28;;
51296;SDS011;37380;45.186;9.792;2024-01-27T12:49:01;85.93;;;64.85;;
51296;SDS011;37380;45.186;9.792;2024-01-27T12:51:33;71.97;;;58.50;;
51296;SDS011;37380;45.186;9.792;2024-01-27T12:54:00;80.60;;;58.50;;
51296;SDS011;37380;45.186;9.792;2024-01-27T12:56:28;80.60;;;60.20;;
51296;SDS011;37380;45.186;9.792;2024-01-27T12:58:55;84.65;;;56.75;;
51296;SDS011;37380;45.186;9.792;2024-01-27T13:01:22;76.15;;;57.28;;
51296;SDS011;37380;45.186;9.792;2024-01-27T13:03:49;81.82;;;61.47;;
51296;SDS011;37380;45.186;9.792;2024-01-27T13:06:17;79.10;;;57.58;;
51296;SDS011;37380;45.186;9.792;2024-01-27T13:08:45;79.00;;;60.60;;
51296;SDS011;37380;45.186;9.792;2024-01-27T13:11:13;90.53;;;64.90;;
51296;SDS011;37380;45.186;9.792;2024-01-27T13:13:40;77.38;;;59.58;;
51296;SDS011;37380;45.186;9.792;2024-01-27T13:16:08;75.80;;;60.30;;
51296;SDS011;37380;45.186;9.792;2024-01-27T13:18:35;78.13;;;59.70;;
51296;SDS011;37380;45.186;9.792;2024-01-27T13:21:03;77.15;;;60.92;;
51296;SDS011;37380;45.186;9.792;2024-01-27T13:23:32;87.63;;;63.80;;
51296;SDS011;37380;45.186;9.792;2024-01-27T13:26:00;83.70;;;58.00;;
51296;SDS011;37380;45.186;9.792;2024-01-27T13:28:43;99.15;;;72.88;;
51296;SDS011;37380;45.186;9.792;2024-01-27T13:31:12;109.32;;;75.28;;
51296;SDS011;37380;45.186;9.792;2024-01-27T13:33:39;102.00;;;70.93;;
51296;SDS011;37380;45.186;9.792;2024-01-27T13:36:06;80.07;;;62.38;;
51296;SDS011;37380;45.186;9.792;2024-01-27T13:38:34;87.95;;;65.85;;
51296;SDS011;37380;45.186;9.792;2024-01-27T13:41:02;91.22;;;67.18;;
51296;SDS011;37380;45.186;9.792;2024-01-27T13:43:29;99.57;;;74.10;;
51296;SDS011;37380;45.186;9.792;2024-01-27T13:45:56;95.32;;;70.95;;
51296;SDS011;37380;45.186;9.792;2024-01-27T13:48:23;98.90;;;74.13;;
51296;SDS011;37380;45.186;9.792;2024-01-27T13:50:52;101.57;;;71.22;;
51296;SDS011;37380;45.186;9.792;2024-01-27T13:53:19;97.30;;;72.85;;
51296;SDS011;37380;45.186;9.792;2024-01-27T13:55:48;88.40;;;67.15;;
51296;SDS011;37380;45.186;9.792;2024-01-27T13:58:16;86.93;;;67.28;;
51296;SDS011;37380;45.186;9.792;2024-01-27T14:00:45;87.50;;;64.38;;
51296;SDS011;37380;45.186;9.792;2024-01-27T14:03:12;100.03;;;74.85;;
51296;SDS011;37380;45.186;9.792;2024-01-27T14:05:39;100.38;;;74.80;;
51296;SDS011;37380;45.186;9.792;2024-01-27T14:08:08;97.57;;;74.32;;
51296;SDS011;37380;45.186;9.792;2024-01-27T14:10:38;103.07;;;75.13;;
51296;SDS011;37380;45.186;9.792;2024-01-27T14:13:06;89.97;;;67.28;;
51296;SDS011;37380;45.186;9.792;2024-01-27T14:15:39;119.55;;;68.75;;
51296;SDS011;37380;45.186;9.792;2024-01-27T14:18:06;205.60;;;83.90;;